createdAt,value
2022-09-12T00:03:55.394Z,20.05
2022-09-12T00:07:57.187Z,18.58
2022-09-12T00:11:58.865Z,17.90
2022-09-12T00:16:01.102Z,16.33
2022-09-12T00:20:04.491Z,18.20
2022-09-12T00:24:06.778Z,16.40
2022-09-12T00:28:08.545Z,13.75
2022-09-12T00:32:10.219Z,14.25
2022-09-12T00:36:18.490Z,16.55
2022-09-12T00:40:20.193Z,17.75
2022-09-12T00:44:21.742Z,17.10
2022-09-12T00:48:32.121Z,15.68
2022-09-12T00:52:43.749Z,16.35
2022-09-12T00:56:47.807Z,15.68
2022-09-12T01:00:50.183Z,20.70
2022-09-12T01:04:52.319Z,15.68
2022-09-12T01:08:55.116Z,13.77
2022-09-12T01:12:57.479Z,16.48
2022-09-12T01:16:59.557Z,15.65
2022-09-12T01:21:26.072Z,17.17
2022-09-12T01:25:44.614Z,15.95
2022-09-12T01:30:23.738Z,16.10
2022-09-12T01:38:47.157Z,21.55
2022-09-12T01:43:04.374Z,17.15
2022-09-12T01:47:15.778Z,18.90
2022-09-12T01:51:26.410Z,18.38
2022-09-12T01:55:32.679Z,16.95
2022-09-12T01:59:39.644Z,19.00
2022-09-12T02:03:51.208Z,17.42
2022-09-12T02:08:01.241Z,19.75
2022-09-12T02:12:04.921Z,17.30
2022-09-12T02:16:11.286Z,19.13
2022-09-12T02:20:48.275Z,17.67
2022-09-12T02:24:55.666Z,18.00
2022-09-12T02:28:57.667Z,20.02
2022-09-12T02:33:06.318Z,18.02
2022-09-12T02:37:19.023Z,22.27
2022-09-12T02:41:21.781Z,18.90
2022-09-12T02:45:23.855Z,16.70
2022-09-12T02:49:25.606Z,17.88
2022-09-12T02:53:27.636Z,19.25
2022-09-12T02:57:29.290Z,18.25
2022-09-12T03:01:50.182Z,18.70
2022-09-12T03:06:01.104Z,19.42
2022-09-12T03:10:23.186Z,24.98
2022-09-12T03:14:51.178Z,18.35
2022-09-12T03:19:03.856Z,20.53
2022-09-12T03:23:20.230Z,16.80
2022-09-12T03:27:34.936Z,24.33
2022-09-12T03:31:36.632Z,21.42
2022-09-12T03:35:38.528Z,18.52
2022-09-12T03:39:40.391Z,19.02
2022-09-12T03:43:42.212Z,21.75
2022-09-12T03:47:43.869Z,20.20
2022-09-12T03:51:45.620Z,20.13
2022-09-12T03:55:47.284Z,19.50
2022-09-12T03:59:50.349Z,17.27
2022-09-12T04:03:52.915Z,19.95
2022-09-12T04:07:54.563Z,22.45
2022-09-12T04:11:56.245Z,17.80
2022-09-12T04:15:59.722Z,16.73
2022-09-12T04:20:01.567Z,20.55
2022-09-12T04:24:03.552Z,24.02
2022-09-12T04:28:05.177Z,23.23
2022-09-12T04:32:06.829Z,24.23
2022-09-12T04:36:16.806Z,24.60
2022-09-12T04:40:19.108Z,20.17
2022-09-12T04:44:20.783Z,19.52
2022-09-12T04:48:22.541Z,25.38
2022-09-12T04:52:24.334Z,19.08
2022-09-12T04:56:26.952Z,23.27
2022-09-12T05:00:29.110Z,23.90
2022-09-12T05:04:31.660Z,21.75
2022-09-12T05:08:35.067Z,19.92
2022-09-12T05:12:37.047Z,23.48
2022-09-12T05:16:39.017Z,26.20
2022-09-12T05:20:40.802Z,31.52
2022-09-12T05:24:47.284Z,26.80
2022-09-12T05:28:53.051Z,23.70
2022-09-12T05:32:54.713Z,25.48
2022-09-12T05:36:56.389Z,25.75
2022-09-12T05:41:06.313Z,27.80
2022-09-12T05:45:08.759Z,25.15
2022-09-12T05:49:12.823Z,22.38
2022-09-12T05:53:14.479Z,24.50
2022-09-12T05:57:16.141Z,22.55
2022-09-12T06:01:19.341Z,26.48
2022-09-12T06:05:21.158Z,24.67
2022-09-12T06:09:25.458Z,23.40
2022-09-12T06:13:27.285Z,25.05
2022-09-12T06:17:29.046Z,27.33
2022-09-12T06:21:31.417Z,25.95
2022-09-12T06:25:33.085Z,26.17
2022-09-12T06:29:34.759Z,22.30
2022-09-12T06:33:38.612Z,25.10
2022-09-12T06:37:40.788Z,24.92
2022-09-12T06:41:44.271Z,25.27
2022-09-12T06:45:50.383Z,25.02
2022-09-12T06:49:52.107Z,25.15
2022-09-12T06:53:57.635Z,29.73
2022-09-12T06:57:59.915Z,23.65
2022-09-12T07:02:01.722Z,23.30
2022-09-12T07:06:08.642Z,22.98
2022-09-12T07:10:12.035Z,24.38
2022-09-12T07:14:15.150Z,28.45
2022-09-12T07:18:16.853Z,28.13
2022-09-12T07:22:19.220Z,28.10
2022-09-12T07:26:21.431Z,25.27
2022-09-12T07:30:23.307Z,24.52
2022-09-12T07:34:25.055Z,25.75
2022-09-12T07:38:26.747Z,26.58
2022-09-12T07:42:28.786Z,25.63
2022-09-12T07:46:31.447Z,23.45
2022-09-12T07:50:33.628Z,21.90
2022-09-12T07:54:35.389Z,28.15
2022-09-12T07:58:39.269Z,27.08
2022-09-12T08:02:41.285Z,26.45
2022-09-12T08:06:43.222Z,22.92
2022-09-12T08:10:44.869Z,25.33
2022-09-12T08:14:46.777Z,22.98
2022-09-12T08:18:49.431Z,24.60
2022-09-12T08:22:51.434Z,24.27
2022-09-12T08:26:53.110Z,22.60
2022-09-12T08:30:54.947Z,26.00
2022-09-12T08:34:56.664Z,22.10
2022-09-12T08:39:00.767Z,21.20
2022-09-12T08:43:25.955Z,22.08
2022-09-12T08:47:34.610Z,20.55
2022-09-12T08:51:36.959Z,25.15
2022-09-12T08:55:51.378Z,21.52
2022-09-12T08:59:53.665Z,18.33
2022-09-12T09:04:26.907Z,19.38
2022-09-12T09:08:59.410Z,14.65
2022-09-12T09:13:14.198Z,13.75
2022-09-12T09:17:41.142Z,14.98
2022-09-12T09:21:42.749Z,14.65
2022-09-12T09:25:56.495Z,16.40
2022-09-12T09:29:58.186Z,13.77
2022-09-12T09:34:00.613Z,13.05
2022-09-12T09:38:24.655Z,11.90
2022-09-12T09:42:32.137Z,12.07
2022-09-12T09:46:34.085Z,10.35
2022-09-12T09:50:37.478Z,11.73
2022-09-12T09:54:44.389Z,15.00
2022-09-12T09:58:46.366Z,9.87
2022-09-12T10:03:11.341Z,8.50
2022-09-12T10:07:20.211Z,8.02
2022-09-12T10:11:23.300Z,7.10
2022-09-12T10:15:26.688Z,9.60
2022-09-12T10:19:40.455Z,12.18
2022-09-12T10:23:43.416Z,7.10
2022-09-12T10:27:45.354Z,9.18
2022-09-12T10:31:59.734Z,6.43
2022-09-12T10:36:02.503Z,7.38
2022-09-12T10:40:20.863Z,6.88
2022-09-12T10:44:28.467Z,7.65
2022-09-12T10:48:33.654Z,6.10
2022-09-12T10:52:35.464Z,6.10
2022-09-12T10:57:02.081Z,5.45
2022-09-12T11:01:19.285Z,8.02
2022-09-12T11:05:45.362Z,7.70
2022-09-12T11:10:11.960Z,10.15
2022-09-12T11:15:07.062Z,6.93
2022-09-12T11:19:50.991Z,4.95
2022-09-12T11:24:23.784Z,7.35
2022-09-12T11:28:53.663Z,6.85
2022-09-12T11:33:40.877Z,6.13
2022-09-12T11:37:52.555Z,6.85
2022-09-12T11:42:02.105Z,7.78
2022-09-12T11:46:11.682Z,7.03
2022-09-12T11:50:27.135Z,6.25
2022-09-12T11:54:44.924Z,5.10
2022-09-12T11:58:53.221Z,3.85
2022-09-12T12:03:06.903Z,4.88
2022-09-12T12:07:11.410Z,8.23
2022-09-12T12:11:16.506Z,3.75
2022-09-12T12:15:19.268Z,3.22
2022-09-12T12:19:32.914Z,4.78
2022-09-12T12:23:35.501Z,6.70
2022-09-12T12:27:53.835Z,5.03
2022-09-12T12:32:02.170Z,9.13
2022-09-12T12:36:08.138Z,5.18
2022-09-12T12:40:22.907Z,5.80
2022-09-12T12:44:44.808Z,8.60
2022-09-12T12:48:55.873Z,8.60
2022-09-12T12:53:17.111Z,5.20
2022-09-12T12:57:29.938Z,7.78
2022-09-12T13:01:32.595Z,4.00
2022-09-12T13:05:44.976Z,5.10
2022-09-12T13:09:55.439Z,7.97
2022-09-12T13:14:03.329Z,7.63
2022-09-12T13:18:12.607Z,13.45
2022-09-12T13:22:14.651Z,5.28
2022-09-12T13:26:25.726Z,7.22
2022-09-12T13:30:31.495Z,5.97
2022-09-12T13:34:58.278Z,7.07
2022-09-12T13:39:27.720Z,7.70
2022-09-12T13:43:42.820Z,3.75
2022-09-12T13:47:47.674Z,5.68
2022-09-12T13:52:03.377Z,4.00
2022-09-12T13:56:05.172Z,5.20
2022-09-12T14:00:20.052Z,9.10
2022-09-12T14:04:43.396Z,4.80
2022-09-12T14:08:47.825Z,4.55
2022-09-12T14:12:52.910Z,6.63
2022-09-12T14:16:54.938Z,6.50
2022-09-12T14:21:01.047Z,5.65
2022-09-12T14:25:03.285Z,7.63
2022-09-12T14:29:06.644Z,10.10
2022-09-12T14:33:11.319Z,8.32
2022-09-12T14:37:13.098Z,4.60
2022-09-12T14:41:23.320Z,4.13
2022-09-12T14:45:31.553Z,5.63
2022-09-12T14:49:36.844Z,4.55
2022-09-12T14:53:49.127Z,3.97
2022-09-12T14:58:12.569Z,4.72
2022-09-12T15:02:17.189Z,8.38
2022-09-12T15:06:26.679Z,4.57
2022-09-12T15:10:35.863Z,4.15
2022-09-12T15:14:37.512Z,5.57
2022-09-12T15:18:39.388Z,4.25
2022-09-12T15:22:42.226Z,3.45
2022-09-12T15:26:43.906Z,5.93
2022-09-12T15:30:47.512Z,2.78
2022-09-12T15:34:49.216Z,5.60
2022-09-12T15:38:51.909Z,5.80
2022-09-12T15:42:53.553Z,5.88
2022-09-12T15:46:55.258Z,4.03
2022-09-12T15:51:01.446Z,5.97
2022-09-12T15:55:04.434Z,3.95
2022-09-12T15:59:06.230Z,2.95
2022-09-12T16:03:23.692Z,4.78
2022-09-12T16:07:25.331Z,3.25
2022-09-12T16:11:27.599Z,8.25
2022-09-12T16:15:29.263Z,4.85
2022-09-12T16:19:30.992Z,3.03
2022-09-12T16:23:33.048Z,5.57
2022-09-12T16:27:35.698Z,5.53
2022-09-12T16:31:38.512Z,4.63
2022-09-12T16:35:40.257Z,4.97
2022-09-12T16:39:42.085Z,4.43
2022-09-12T16:43:44.524Z,3.97
2022-09-12T16:47:46.217Z,2.83
2022-09-12T16:51:47.916Z,4.28
2022-09-12T16:55:50.319Z,7.95
2022-09-12T16:59:52.219Z,2.25
2022-09-12T17:03:56.589Z,4.32
2022-09-12T17:07:58.263Z,7.55
2022-09-12T17:12:00.709Z,3.58
2022-09-12T17:16:12.381Z,4.32
2022-09-12T17:20:14.099Z,3.28
2022-09-12T17:24:17.670Z,6.55
2022-09-12T17:28:20.173Z,6.00
2022-09-12T17:32:21.906Z,4.80
2022-09-12T17:36:23.562Z,3.22
2022-09-12T17:40:42.523Z,5.68
2022-09-12T17:44:46.882Z,3.83
2022-09-12T17:48:56.843Z,8.23
2022-09-12T17:52:58.530Z,6.68
2022-09-12T17:57:00.198Z,4.72
2022-09-12T18:01:22.445Z,4.13
2022-09-12T18:05:24.139Z,5.97
2022-09-12T18:09:26.837Z,5.40
2022-09-12T18:13:28.514Z,8.23
2022-09-12T18:17:30.194Z,5.20
2022-09-12T18:21:32.079Z,5.45
2022-09-12T18:25:33.755Z,8.30
2022-09-12T18:29:35.493Z,6.03
2022-09-12T18:33:37.984Z,7.75
2022-09-12T18:37:42.489Z,7.65
2022-09-12T18:41:44.459Z,3.70
2022-09-12T18:45:46.113Z,6.22
2022-09-12T18:49:48.624Z,7.38
2022-09-12T18:53:53.636Z,7.03
2022-09-12T18:57:55.701Z,8.88
2022-09-12T19:01:57.939Z,6.80
2022-09-12T19:05:59.736Z,8.80
2022-09-12T19:10:01.459Z,5.93
2022-09-12T19:14:03.359Z,9.10
2022-09-12T19:18:05.100Z,10.57
2022-09-12T19:22:06.787Z,5.03
2022-09-12T19:26:10.937Z,10.60
2022-09-12T19:30:12.750Z,8.57
2022-09-12T19:34:15.078Z,7.75
2022-09-12T19:38:17.063Z,7.45
2022-09-12T19:42:18.796Z,7.05
2022-09-12T19:46:22.677Z,10.00
2022-09-12T19:50:24.802Z,10.85
2022-09-12T19:54:26.423Z,6.57
2022-09-12T19:58:29.242Z,6.70
2022-09-12T20:02:31.122Z,5.35
2022-09-12T20:06:32.931Z,7.15
2022-09-12T20:10:34.647Z,6.55
2022-09-12T20:14:36.381Z,5.28
2022-09-12T20:18:41.622Z,5.35
2022-09-12T20:22:43.356Z,5.95
2022-09-12T20:26:45.188Z,12.73
2022-09-12T20:30:47.035Z,10.13
2022-09-12T20:34:48.718Z,10.38
2022-09-12T20:38:53.401Z,8.65
2022-09-12T20:42:55.092Z,11.35
2022-09-12T20:46:57.126Z,11.25
2022-09-12T20:50:59.823Z,9.45
2022-09-12T20:55:01.548Z,9.52
2022-09-12T20:59:04.232Z,7.65
2022-09-12T21:03:05.876Z,8.07
2022-09-12T21:07:07.581Z,8.73
2022-09-12T21:11:10.001Z,8.43
2022-09-12T21:15:11.700Z,9.82
2022-09-12T21:19:13.381Z,10.57
2022-09-12T21:23:15.064Z,9.23
2022-09-12T21:27:16.867Z,10.40
2022-09-12T21:31:18.674Z,10.27
2022-09-12T21:35:20.391Z,11.98
2022-09-12T21:39:22.367Z,15.20
2022-09-12T21:43:24.065Z,15.02
2022-09-12T21:47:25.715Z,13.73
2022-09-12T21:51:27.411Z,12.68
2022-09-12T21:55:29.307Z,18.02
2022-09-12T21:59:31.142Z,14.00
2022-09-12T22:03:32.990Z,13.45
2022-09-12T22:07:34.704Z,10.48
2022-09-12T22:11:36.391Z,11.98
2022-09-12T22:15:40.941Z,14.10
2022-09-12T22:19:43.033Z,10.88
2022-09-12T22:24:04.449Z,11.90
2022-09-12T22:28:06.227Z,10.25
2022-09-12T22:32:08.010Z,9.70
2022-09-12T22:36:10.205Z,12.60
2022-09-12T22:40:12.066Z,9.85
2022-09-12T22:44:14.167Z,12.18
2022-09-12T22:48:17.225Z,14.90
2022-09-12T22:52:18.950Z,13.52
2022-09-12T22:56:20.622Z,12.15
2022-09-12T23:00:23.660Z,18.45
2022-09-12T23:04:25.462Z,11.45
2022-09-12T23:08:29.706Z,10.40
2022-09-12T23:12:32.060Z,14.85
2022-09-12T23:16:33.880Z,11.75
2022-09-12T23:20:35.741Z,9.45
2022-09-12T23:24:38.373Z,9.80
2022-09-12T23:28:41.594Z,10.23
2022-09-12T23:32:43.292Z,10.75
2022-09-12T23:36:44.990Z,11.10
2022-09-12T23:40:46.691Z,11.70
2022-09-12T23:44:48.389Z,11.38
2022-09-12T23:48:50.423Z,12.95
2022-09-12T23:52:52.153Z,13.10
2022-09-12T23:56:53.828Z,14.18
